sensor_id;sensor_type;location;lat;lon;timestamp;temperature;humidity
25668;DHT22;18003;-33.830;151.202;2023-09-18T00:01:31;20.50;95.00
25668;DHT22;18003;-33.830;151.202;2023-09-18T00:04:01;20.60;94.70
25668;DHT22;18003;-33.830;151.202;2023-09-18T00:06:32;20.60;95.80
25668;DHT22;18003;-33.830;151.202;2023-09-18T00:09:02;20.60;97.00
25668;DHT22;18003;-33.830;151.202;2023-09-18T00:11:32;20.60;96.50
25668;DHT22;18003;-33.830;151.202;2023-09-18T00:14:03;20.70;93.20
25668;DHT22;18003;-33.830;151.202;2023-09-18T00:16:33;20.80;93.00
25668;DHT22;18003;-33.830;151.202;2023-09-18T00:19:03;20.80;92.10
25668;DHT22;18003;-33.830;151.202;2023-09-18T00:21:35;20.80;92.10
25668;DHT22;18003;-33.830;151.202;2023-09-18T00:24:05;20.90;91.70
25668;DHT22;18003;-33.830;151.202;2023-09-18T00:26:36;20.90;91.90
25668;DHT22;18003;-33.830;151.202;2023-09-18T00:29:06;21.00;91.90
25668;DHT22;18003;-33.830;151.202;2023-09-18T00:31:36;20.90;91.70
25668;DHT22;18003;-33.830;151.202;2023-09-18T00:34:06;20.90;91.90
25668;DHT22;18003;-33.830;151.202;2023-09-18T00:36:37;21.00;91.50
25668;DHT22;18003;-33.830;151.202;2023-09-18T00:39:07;21.00;90.00
25668;DHT22;18003;-33.830;151.202;2023-09-18T00:41:37;21.00;89.50
25668;DHT22;18003;-33.830;151.202;2023-09-18T00:44:07;21.10;89.10
25668;DHT22;18003;-33.830;151.202;2023-09-18T00:46:38;21.10;87.20
25668;DHT22;18003;-33.830;151.202;2023-09-18T00:49:08;21.20;88.00
25668;DHT22;18003;-33.830;151.202;2023-09-18T00:51:38;21.30;86.10
25668;DHT22;18003;-33.830;151.202;2023-09-18T00:54:10;21.30;85.20
25668;DHT22;18003;-33.830;151.202;2023-09-18T00:56:40;21.30;85.30
25668;DHT22;18003;-33.830;151.202;2023-09-18T00:59:11;21.30;85.40
25668;DHT22;18003;-33.830;151.202;2023-09-18T01:01:43;21.30;86.10
25668;DHT22;18003;-33.830;151.202;2023-09-18T01:04:14;21.40;85.30
25668;DHT22;18003;-33.830;151.202;2023-09-18T01:06:44;21.60;84.00
25668;DHT22;18003;-33.830;151.202;2023-09-18T01:09:20;21.50;83.80
25668;DHT22;18003;-33.830;151.202;2023-09-18T01:12:08;21.50;84.10
25668;DHT22;18003;-33.830;151.202;2023-09-18T01:14:41;21.60;83.10
25668;DHT22;18003;-33.830;151.202;2023-09-18T01:17:11;21.60;83.00
25668;DHT22;18003;-33.830;151.202;2023-09-18T01:19:46;21.70;84.60
25668;DHT22;18003;-33.830;151.202;2023-09-18T01:22:17;21.70;83.10
25668;DHT22;18003;-33.830;151.202;2023-09-18T01:24:47;21.70;82.70
25668;DHT22;18003;-33.830;151.202;2023-09-18T01:27:18;21.70;82.40
25668;DHT22;18003;-33.830;151.202;2023-09-18T01:29:49;21.60;82.20
25668;DHT22;18003;-33.830;151.202;2023-09-18T01:32:19;21.80;81.80
25668;DHT22;18003;-33.830;151.202;2023-09-18T01:34:52;21.70;83.00
25668;DHT22;18003;-33.830;151.202;2023-09-18T01:37:24;21.70;83.20
25668;DHT22;18003;-33.830;151.202;2023-09-18T01:39:56;21.70;82.20
25668;DHT22;18003;-33.830;151.202;2023-09-18T01:42:29;21.80;82.60
25668;DHT22;18003;-33.830;151.202;2023-09-18T01:44:59;21.70;82.70
25668;DHT22;18003;-33.830;151.202;2023-09-18T01:47:30;21.70;81.70
25668;DHT22;18003;-33.830;151.202;2023-09-18T01:50:06;21.80;82.80
25668;DHT22;18003;-33.830;151.202;2023-09-18T01:52:33;22.00;81.10
25668;DHT22;18003;-33.830;151.202;2023-09-18T01:55:03;21.90;80.50
25668;DHT22;18003;-33.830;151.202;2023-09-18T01:57:34;21.90;80.20
25668;DHT22;18003;-33.830;151.202;2023-09-18T02:00:05;21.90;81.20
25668;DHT22;18003;-33.830;151.202;2023-09-18T02:02:36;21.90;81.90
25668;DHT22;18003;-33.830;151.202;2023-09-18T02:05:07;22.00;82.30
25668;DHT22;18003;-33.830;151.202;2023-09-18T02:07:37;22.00;80.80
25668;DHT22;18003;-33.830;151.202;2023-09-18T02:10:07;22.00;80.70
25668;DHT22;18003;-33.830;151.202;2023-09-18T02:12:38;22.00;80.80
25668;DHT22;18003;-33.830;151.202;2023-09-18T02:15:08;22.10;80.90
25668;DHT22;18003;-33.830;151.202;2023-09-18T02:17:39;22.00;81.70
25668;DHT22;18003;-33.830;151.202;2023-09-18T02:20:09;22.10;80.90
25668;DHT22;18003;-33.830;151.202;2023-09-18T02:22:39;22.10;80.20
25668;DHT22;18003;-33.830;151.202;2023-09-18T02:25:10;22.00;81.40
25668;DHT22;18003;-33.830;151.202;2023-09-18T02:27:40;22.10;81.70
25668;DHT22;18003;-33.830;151.202;2023-09-18T02:30:10;22.10;81.10
25668;DHT22;18003;-33.830;151.202;2023-09-18T02:32:40;22.20;80.70
25668;DHT22;18003;-33.830;151.202;2023-09-18T02:35:11;22.20;80.00
25668;DHT22;18003;-33.830;151.202;2023-09-18T02:37:41;22.20;80.20
25668;DHT22;18003;-33.830;151.202;2023-09-18T02:40:11;22.20;80.00
25668;DHT22;18003;-33.830;151.202;2023-09-18T02:42:42;22.30;81.00
25668;DHT22;18003;-33.830;151.202;2023-09-18T02:45:12;22.40;79.40
25668;DHT22;18003;-33.830;151.202;2023-09-18T02:47:43;22.40;79.00
25668;DHT22;18003;-33.830;151.202;2023-09-18T02:50:13;22.50;78.70
25668;DHT22;18003;-33.830;151.202;2023-09-18T02:52:43;22.40;77.60
25668;DHT22;18003;-33.830;151.202;2023-09-18T02:55:13;22.40;81.40
25668;DHT22;18003;-33.830;151.202;2023-09-18T02:57:43;22.40;86.90
25668;DHT22;18003;-33.830;151.202;2023-09-18T03:00:13;22.30;89.10
25668;DHT22;18003;-33.830;151.202;2023-09-18T03:02:43;22.50;82.00
25668;DHT22;18003;-33.830;151.202;2023-09-18T03:05:14;22.50;82.30
25668;DHT22;18003;-33.830;151.202;2023-09-18T03:07:44;22.40;85.70
25668;DHT22;18003;-33.830;151.202;2023-09-18T03:10:14;22.40;89.70
25668;DHT22;18003;-33.830;151.202;2023-09-18T03:12:47;22.30;90.60
25668;DHT22;18003;-33.830;151.202;2023-09-18T03:15:15;22.40;91.30
25668;DHT22;18003;-33.830;151.202;2023-09-18T03:17:45;22.40;91.60
25668;DHT22;18003;-33.830;151.202;2023-09-18T03:20:15;22.30;92.00
25668;DHT22;18003;-33.830;151.202;2023-09-18T03:22:45;22.50;92.70
25668;DHT22;18003;-33.830;151.202;2023-09-18T03:25:15;22.50;92.20
25668;DHT22;18003;-33.830;151.202;2023-09-18T03:27:45;22.50;92.60
25668;DHT22;18003;-33.830;151.202;2023-09-18T03:30:16;22.50;92.90
25668;DHT22;18003;-33.830;151.202;2023-09-18T03:32:46;22.50;93.40
25668;DHT22;18003;-33.830;151.202;2023-09-18T03:35:16;22.40;93.90
25668;DHT22;18003;-33.830;151.202;2023-09-18T03:37:47;22.40;94.40
25668;DHT22;18003;-33.830;151.202;2023-09-18T03:40:17;22.40;95.10
25668;DHT22;18003;-33.830;151.202;2023-09-18T03:42:48;22.40;95.40
25668;DHT22;18003;-33.830;151.202;2023-09-18T03:45:18;22.40;96.30
25668;DHT22;18003;-33.830;151.202;2023-09-18T03:47:48;22.40;96.80
25668;DHT22;18003;-33.830;151.202;2023-09-18T03:50:18;22.30;97.20
25668;DHT22;18003;-33.830;151.202;2023-09-18T03:52:48;22.30;97.50
25668;DHT22;18003;-33.830;151.202;2023-09-18T03:55:18;22.30;98.10
25668;DHT22;18003;-33.830;151.202;2023-09-18T03:57:48;22.30;98.20
25668;DHT22;18003;-33.830;151.202;2023-09-18T04:00:18;22.30;98.40
25668;DHT22;18003;-33.830;151.202;2023-09-18T04:02:49;22.50;98.40
25668;DHT22;18003;-33.830;151.202;2023-09-18T04:05:19;22.70;98.50
25668;DHT22;18003;-33.830;151.202;2023-09-18T04:07:49;22.80;97.40
25668;DHT22;18003;-33.830;151.202;2023-09-18T04:10:20;23.10;97.00
25668;DHT22;18003;-33.830;151.202;2023-09-18T04:12:51;23.10;96.50
25668;DHT22;18003;-33.830;151.202;2023-09-18T04:15:22;23.10;96.40
25668;DHT22;18003;-33.830;151.202;2023-09-18T04:17:52;23.10;96.20
25668;DHT22;18003;-33.830;151.202;2023-09-18T04:20:22;23.30;95.90
25668;DHT22;18003;-33.830;151.202;2023-09-18T04:25:40;23.20;95.90
25668;DHT22;18003;-33.830;151.202;2023-09-18T04:28:10;23.30;95.90
25668;DHT22;18003;-33.830;151.202;2023-09-18T04:30:41;23.10;96.00
25668;DHT22;18003;-33.830;151.202;2023-09-18T04:33:11;23.00;96.30
25668;DHT22;18003;-33.830;151.202;2023-09-18T04:35:41;22.90;96.20
25668;DHT22;18003;-33.830;151.202;2023-09-18T04:38:11;22.80;96.30
25668;DHT22;18003;-33.830;151.202;2023-09-18T04:40:43;22.70;96.30
25668;DHT22;18003;-33.830;151.202;2023-09-18T04:43:12;22.70;96.20
25668;DHT22;18003;-33.830;151.202;2023-09-18T04:45:42;22.70;96.20
25668;DHT22;18003;-33.830;151.202;2023-09-18T04:48:12;22.90;95.90
25668;DHT22;18003;-33.830;151.202;2023-09-18T04:50:42;22.80;95.70
25668;DHT22;18003;-33.830;151.202;2023-09-18T04:53:12;22.70;95.70
25668;DHT22;18003;-33.830;151.202;2023-09-18T04:55:42;22.60;95.70
25668;DHT22;18003;-33.830;151.202;2023-09-18T04:58:15;22.60;95.70
25668;DHT22;18003;-33.830;151.202;2023-09-18T05:00:45;22.60;95.90
25668;DHT22;18003;-33.830;151.202;2023-09-18T05:03:15;22.60;95.90
25668;DHT22;18003;-33.830;151.202;2023-09-18T05:05:45;22.60;95.90
25668;DHT22;18003;-33.830;151.202;2023-09-18T05:08:15;22.60;95.90
25668;DHT22;18003;-33.830;151.202;2023-09-18T05:10:45;22.60;95.80
25668;DHT22;18003;-33.830;151.202;2023-09-18T05:13:15;22.60;95.70
25668;DHT22;18003;-33.830;151.202;2023-09-18T05:15:46;22.60;95.60
25668;DHT22;18003;-33.830;151.202;2023-09-18T05:18:16;22.60;95.60
25668;DHT22;18003;-33.830;151.202;2023-09-18T05:20:46;22.60;95.50
25668;DHT22;18003;-33.830;151.202;2023-09-18T05:23:16;22.60;95.50
25668;DHT22;18003;-33.830;151.202;2023-09-18T05:25:46;22.70;95.20
25668;DHT22;18003;-33.830;151.202;2023-09-18T05:28:16;22.70;95.10
25668;DHT22;18003;-33.830;151.202;2023-09-18T05:30:46;22.60;95.00
25668;DHT22;18003;-33.830;151.202;2023-09-18T05:33:16;22.70;95.00
25668;DHT22;18003;-33.830;151.202;2023-09-18T05:35:46;22.70;95.10
25668;DHT22;18003;-33.830;151.202;2023-09-18T05:38:17;22.70;95.00
25668;DHT22;18003;-33.830;151.202;2023-09-18T05:40:46;22.60;95.30
25668;DHT22;18003;-33.830;151.202;2023-09-18T05:43:17;22.60;95.60
25668;DHT22;18003;-33.830;151.202;2023-09-18T05:45:47;22.60;95.70
25668;DHT22;18003;-33.830;151.202;2023-09-18T05:48:17;22.60;95.90
25668;DHT22;18003;-33.830;151.202;2023-09-18T05:50:48;22.70;96.30
25668;DHT22;18003;-33.830;151.202;2023-09-18T05:53:18;22.70;96.20
25668;DHT22;18003;-33.830;151.202;2023-09-18T05:55:48;22.60;96.60
25668;DHT22;18003;-33.830;151.202;2023-09-18T05:58:18;22.70;96.90
25668;DHT22;18003;-33.830;151.202;2023-09-18T06:00:49;22.70;97.00
25668;DHT22;18003;-33.830;151.202;2023-09-18T06:03:19;22.70;97.20
25668;DHT22;18003;-33.830;151.202;2023-09-18T06:05:50;22.70;97.10
25668;DHT22;18003;-33.830;151.202;2023-09-18T06:08:20;22.60;97.20
25668;DHT22;18003;-33.830;151.202;2023-09-18T06:10:50;22.60;97.50
25668;DHT22;18003;-33.830;151.202;2023-09-18T06:13:20;22.60;97.40
25668;DHT22;18003;-33.830;151.202;2023-09-18T06:15:50;22.60;97.40
25668;DHT22;18003;-33.830;151.202;2023-09-18T06:18:21;22.60;97.60
25668;DHT22;18003;-33.830;151.202;2023-09-18T06:20:52;22.60;97.40
25668;DHT22;18003;-33.830;151.202;2023-09-18T06:23:22;22.60;97.40
25668;DHT22;18003;-33.830;151.202;2023-09-18T06:25:52;22.60;97.20
25668;DHT22;18003;-33.830;151.202;2023-09-18T06:28:23;22.60;97.10
25668;DHT22;18003;-33.830;151.202;2023-09-18T06:30:53;22.50;97.00
25668;DHT22;18003;-33.830;151.202;2023-09-18T06:33:23;22.50;96.90
25668;DHT22;18003;-33.830;151.202;2023-09-18T06:35:53;22.50;96.90
25668;DHT22;18003;-33.830;151.202;2023-09-18T06:38:23;22.50;96.70
25668;DHT22;18003;-33.830;151.202;2023-09-18T06:40:53;22.60;96.70
25668;DHT22;18003;-33.830;151.202;2023-09-18T06:43:23;22.60;96.60
25668;DHT22;18003;-33.830;151.202;2023-09-18T06:45:54;22.50;96.50
25668;DHT22;18003;-33.830;151.202;2023-09-18T06:48:25;22.50;96.50
25668;DHT22;18003;-33.830;151.202;2023-09-18T06:50:55;22.40;96.60
25668;DHT22;18003;-33.830;151.202;2023-09-18T06:53:25;22.50;96.50
25668;DHT22;18003;-33.830;151.202;2023-09-18T06:55:56;22.40;96.30
25668;DHT22;18003;-33.830;151.202;2023-09-18T06:58:26;22.50;96.30
25668;DHT22;18003;-33.830;151.202;2023-09-18T07:00:56;22.40;96.30
25668;DHT22;18003;-33.830;151.202;2023-09-18T07:03:26;22.40;95.70
25668;DHT22;18003;-33.830;151.202;2023-09-18T07:05:57;22.40;95.60
25668;DHT22;18003;-33.830;151.202;2023-09-18T07:08:27;22.40;95.20
25668;DHT22;18003;-33.830;151.202;2023-09-18T07:10:57;22.40;95.30
25668;DHT22;18003;-33.830;151.202;2023-09-18T07:13:27;22.40;95.30
25668;DHT22;18003;-33.830;151.202;2023-09-18T07:15:57;22.40;95.00
25668;DHT22;18003;-33.830;151.202;2023-09-18T07:18:27;22.40;95.10
25668;DHT22;18003;-33.830;151.202;2023-09-18T07:20:57;22.30;94.90
25668;DHT22;18003;-33.830;151.202;2023-09-18T07:23:27;22.30;95.10
25668;DHT22;18003;-33.830;151.202;2023-09-18T07:25:57;22.30;95.10
25668;DHT22;18003;-33.830;151.202;2023-09-18T07:28:27;22.30;95.10
25668;DHT22;18003;-33.830;151.202;2023-09-18T07:30:57;22.30;95.20
25668;DHT22;18003;-33.830;151.202;2023-09-18T07:33:28;22.30;95.20
25668;DHT22;18003;-33.830;151.202;2023-09-18T07:35:58;22.30;95.30
25668;DHT22;18003;-33.830;151.202;2023-09-18T07:38:28;22.30;95.10
25668;DHT22;18003;-33.830;151.202;2023-09-18T07:40:58;22.30;95.40
25668;DHT22;18003;-33.830;151.202;2023-09-18T07:43:28;22.30;95.40
25668;DHT22;18003;-33.830;151.202;2023-09-18T07:45:58;22.20;95.60
25668;DHT22;18003;-33.830;151.202;2023-09-18T07:48:30;22.20;95.70
25668;DHT22;18003;-33.830;151.202;2023-09-18T07:51:00;22.20;96.10
25668;DHT22;18003;-33.830;151.202;2023-09-18T07:53:30;22.10;96.90
25668;DHT22;18003;-33.830;151.202;2023-09-18T07:56:00;22.10;97.40
25668;DHT22;18003;-33.830;151.202;2023-09-18T07:58:31;22.10;97.50
25668;DHT22;18003;-33.830;151.202;2023-09-18T08:01:01;22.10;98.10
25668;DHT22;18003;-33.830;151.202;2023-09-18T08:03:33;22.00;98.00
25668;DHT22;18003;-33.830;151.202;2023-09-18T08:06:03;22.00;97.70
25668;DHT22;18003;-33.830;151.202;2023-09-18T08:08:33;22.00;97.80
25668;DHT22;18003;-33.830;151.202;2023-09-18T08:11:08;22.00;97.90
25668;DHT22;18003;-33.830;151.202;2023-09-18T08:13:38;22.00;98.20
25668;DHT22;18003;-33.830;151.202;2023-09-18T08:16:08;22.00;98.00
25668;DHT22;18003;-33.830;151.202;2023-09-18T08:18:38;22.00;98.40
25668;DHT22;18003;-33.830;151.202;2023-09-18T08:21:09;22.00;98.60
25668;DHT22;18003;-33.830;151.202;2023-09-18T08:23:40;21.90;98.50
25668;DHT22;18003;-33.830;151.202;2023-09-18T08:26:10;21.90;98.10
25668;DHT22;18003;-33.830;151.202;2023-09-18T08:28:40;21.90;98.10
25668;DHT22;18003;-33.830;151.202;2023-09-18T08:31:11;21.80;98.50
25668;DHT22;18003;-33.830;151.202;2023-09-18T08:33:42;21.80;98.70
25668;DHT22;18003;-33.830;151.202;2023-09-18T08:36:13;21.80;98.30
25668;DHT22;18003;-33.830;151.202;2023-09-18T08:38:43;21.80;98.50
25668;DHT22;18003;-33.830;151.202;2023-09-18T08:41:16;21.80;98.70
25668;DHT22;18003;-33.830;151.202;2023-09-18T08:43:45;21.80;98.60
25668;DHT22;18003;-33.830;151.202;2023-09-18T08:46:15;21.80;99.40
25668;DHT22;18003;-33.830;151.202;2023-09-18T08:48:45;21.80;99.30
25668;DHT22;18003;-33.830;151.202;2023-09-18T08:51:17;21.80;98.80
25668;DHT22;18003;-33.830;151.202;2023-09-18T08:53:48;21.70;98.80
25668;DHT22;18003;-33.830;151.202;2023-09-18T08:56:19;21.70;99.10
25668;DHT22;18003;-33.830;151.202;2023-09-18T08:58:50;21.70;99.10
25668;DHT22;18003;-33.830;151.202;2023-09-18T09:01:21;21.70;99.00
25668;DHT22;18003;-33.830;151.202;2023-09-18T09:03:51;21.70;99.10
25668;DHT22;18003;-33.830;151.202;2023-09-18T09:06:21;21.60;99.40
25668;DHT22;18003;-33.830;151.202;2023-09-18T09:08:51;21.60;99.20
25668;DHT22;18003;-33.830;151.202;2023-09-18T09:11:21;21.60;99.40
25668;DHT22;18003;-33.830;151.202;2023-09-18T09:14:11;21.60;99.20
25668;DHT22;18003;-33.830;151.202;2023-09-18T09:16:46;21.60;99.30
25668;DHT22;18003;-33.830;151.202;2023-09-18T09:19:13;21.60;99.40
25668;DHT22;18003;-33.830;151.202;2023-09-18T09:21:44;21.60;99.30
25668;DHT22;18003;-33.830;151.202;2023-09-18T09:24:15;21.50;99.40
25668;DHT22;18003;-33.830;151.202;2023-09-18T09:26:44;21.50;99.70
25668;DHT22;18003;-33.830;151.202;2023-09-18T09:29:19;21.50;99.40
25668;DHT22;18003;-33.830;151.202;2023-09-18T09:31:50;21.50;99.40
25668;DHT22;18003;-33.830;151.202;2023-09-18T09:34:27;21.50;99.40
25668;DHT22;18003;-33.830;151.202;2023-09-18T09:36:57;21.50;99.40
25668;DHT22;18003;-33.830;151.202;2023-09-18T09:39:27;21.50;99.50
25668;DHT22;18003;-33.830;151.202;2023-09-18T09:42:01;21.50;99.60
25668;DHT22;18003;-33.830;151.202;2023-09-18T09:44:36;21.50;99.70
25668;DHT22;18003;-33.830;151.202;2023-09-18T09:47:07;21.40;99.70
25668;DHT22;18003;-33.830;151.202;2023-09-18T09:49:47;21.40;99.90
25668;DHT22;18003;-33.830;151.202;2023-09-18T09:52:20;21.40;99.90
25668;DHT22;18003;-33.830;151.202;2023-09-18T09:54:51;21.40;99.90
25668;DHT22;18003;-33.830;151.202;2023-09-18T09:57:21;21.40;99.90
25668;DHT22;18003;-33.830;151.202;2023-09-18T09:59:51;21.40;99.90
25668;DHT22;18003;-33.830;151.202;2023-09-18T10:02:22;21.40;99.90
25668;DHT22;18003;-33.830;151.202;2023-09-18T10:04:53;21.40;99.90
25668;DHT22;18003;-33.830;151.202;2023-09-18T10:07:23;21.30;99.90
25668;DHT22;18003;-33.830;151.202;2023-09-18T10:09:53;21.30;99.90
25668;DHT22;18003;-33.830;151.202;2023-09-18T10:12:24;21.30;99.90
25668;DHT22;18003;-33.830;151.202;2023-09-18T10:14:55;21.40;99.90
25668;DHT22;18003;-33.830;151.202;2023-09-18T10:17:26;21.30;99.90
25668;DHT22;18003;-33.830;151.202;2023-09-18T10:20:05;21.30;99.90
25668;DHT22;18003;-33.830;151.202;2023-09-18T10:22:38;21.30;99.90
25668;DHT22;18003;-33.830;151.202;2023-09-18T10:25:15;21.30;99.90
25668;DHT22;18003;-33.830;151.202;2023-09-18T10:27:43;21.30;99.90
25668;DHT22;18003;-33.830;151.202;2023-09-18T10:30:12;21.30;99.90
25668;DHT22;18003;-33.830;151.202;2023-09-18T10:32:43;21.20;99.90
25668;DHT22;18003;-33.830;151.202;2023-09-18T10:35:14;21.20;99.90
25668;DHT22;18003;-33.830;151.202;2023-09-18T10:37:46;21.20;99.90
25668;DHT22;18003;-33.830;151.202;2023-09-18T10:40:17;21.20;99.90
25668;DHT22;18003;-33.830;151.202;2023-09-18T10:42:48;21.20;99.90
25668;DHT22;18003;-33.830;151.202;2023-09-18T10:45:20;21.20;99.90
25668;DHT22;18003;-33.830;151.202;2023-09-18T10:47:50;21.10;99.90
25668;DHT22;18003;-33.830;151.202;2023-09-18T10:50:26;21.10;99.90
25668;DHT22;18003;-33.830;151.202;2023-09-18T10:53:00;21.10;99.90
25668;DHT22;18003;-33.830;151.202;2023-09-18T10:55:31;21.10;99.90
25668;DHT22;18003;-33.830;151.202;2023-09-18T10:58:00;21.10;99.90
25668;DHT22;18003;-33.830;151.202;2023-09-18T11:00:31;21.10;99.90
25668;DHT22;18003;-33.830;151.202;2023-09-18T11:03:16;21.10;99.90
25668;DHT22;18003;-33.830;151.202;2023-09-18T11:06:01;21.10;99.90
25668;DHT22;18003;-33.830;151.202;2023-09-18T11:08:30;21.10;99.90
25668;DHT22;18003;-33.830;151.202;2023-09-18T11:11:08;21.10;99.90
25668;DHT22;18003;-33.830;151.202;2023-09-18T11:13:50;21.10;99.90
25668;DHT22;18003;-33.830;151.202;2023-09-18T11:19:05;21.00;99.90
25668;DHT22;18003;-33.830;151.202;2023-09-18T11:21:35;21.00;99.90
25668;DHT22;18003;-33.830;151.202;2023-09-18T11:24:16;21.00;99.90
25668;DHT22;18003;-33.830;151.202;2023-09-18T11:26:47;20.90;99.90
25668;DHT22;18003;-33.830;151.202;2023-09-18T11:29:21;21.00;99.90
25668;DHT22;18003;-33.830;151.202;2023-09-18T11:31:54;20.90;99.90
25668;DHT22;18003;-33.830;151.202;2023-09-18T11:34:25;20.90;99.90
25668;DHT22;18003;-33.830;151.202;2023-09-18T11:36:59;20.90;99.90
25668;DHT22;18003;-33.830;151.202;2023-09-18T11:39:34;20.90;99.90
25668;DHT22;18003;-33.830;151.202;2023-09-18T11:42:09;20.90;99.90
25668;DHT22;18003;-33.830;151.202;2023-09-18T11:44:43;20.90;99.90
25668;DHT22;18003;-33.830;151.202;2023-09-18T11:47:33;20.90;99.90
25668;DHT22;18003;-33.830;151.202;2023-09-18T11:50:05;20.90;99.90
25668;DHT22;18003;-33.830;151.202;2023-09-18T11:52:37;20.80;99.90
25668;DHT22;18003;-33.830;151.202;2023-09-18T11:55:09;20.80;99.90
25668;DHT22;18003;-33.830;151.202;2023-09-18T11:57:39;20.80;99.90
25668;DHT22;18003;-33.830;151.202;2023-09-18T12:00:18;20.80;99.90
25668;DHT22;18003;-33.830;151.202;2023-09-18T12:02:50;20.80;99.90
25668;DHT22;18003;-33.830;151.202;2023-09-18T12:05:20;20.80;99.90
25668;DHT22;18003;-33.830;151.202;2023-09-18T12:07:52;20.70;99.90
25668;DHT22;18003;-33.830;151.202;2023-09-18T12:10:23;20.70;99.90
25668;DHT22;18003;-33.830;151.202;2023-09-18T12:12:53;20.70;99.90
25668;DHT22;18003;-33.830;151.202;2023-09-18T12:15:23;20.70;99.90
25668;DHT22;18003;-33.830;151.202;2023-09-18T12:17:57;20.70;99.90
25668;DHT22;18003;-33.830;151.202;2023-09-18T12:20:28;20.60;99.90
25668;DHT22;18003;-33.830;151.202;2023-09-18T12:22:58;20.60;99.90
25668;DHT22;18003;-33.830;151.202;2023-09-18T12:25:28;20.60;99.90
25668;DHT22;18003;-33.830;151.202;2023-09-18T12:27:58;20.60;99.90
25668;DHT22;18003;-33.830;151.202;2023-09-18T12:30:28;20.60;99.90
25668;DHT22;18003;-33.830;151.202;2023-09-18T12:32:59;20.60;99.90
25668;DHT22;18003;-33.830;151.202;2023-09-18T12:35:32;20.60;99.90
25668;DHT22;18003;-33.830;151.202;2023-09-18T12:38:02;20.60;99.90
25668;DHT22;18003;-33.830;151.202;2023-09-18T12:40:33;20.50;99.90
25668;DHT22;18003;-33.830;151.202;2023-09-18T12:43:03;20.50;99.90
25668;DHT22;18003;-33.830;151.202;2023-09-18T12:45:35;20.50;99.90
25668;DHT22;18003;-33.830;151.202;2023-09-18T12:48:05;20.50;99.90
25668;DHT22;18003;-33.830;151.202;2023-09-18T12:50:36;20.50;99.90
25668;DHT22;18003;-33.830;151.202;2023-09-18T12:53:13;20.50;99.90
25668;DHT22;18003;-33.830;151.202;2023-09-18T12:55:45;20.40;99.90
25668;DHT22;18003;-33.830;151.202;2023-09-18T12:58:19;20.40;99.90
25668;DHT22;18003;-33.830;151.202;2023-09-18T13:00:50;20.40;99.90
25668;DHT22;18003;-33.830;151.202;2023-09-18T13:03:20;20.40;99.90
25668;DHT22;18003;-33.830;151.202;2023-09-18T13:05:51;20.40;99.90
25668;DHT22;18003;-33.830;151.202;2023-09-18T13:08:25;20.40;99.90
25668;DHT22;18003;-33.830;151.202;2023-09-18T13:10:55;20.40;99.90
25668;DHT22;18003;-33.830;151.202;2023-09-18T13:13:26;20.30;99.90
25668;DHT22;18003;-33.830;151.202;2023-09-18T13:15:59;20.30;99.90
25668;DHT22;18003;-33.830;151.202;2023-09-18T13:18:31;20.30;99.90
25668;DHT22;18003;-33.830;151.202;2023-09-18T13:21:08;20.30;99.90
25668;DHT22;18003;-33.830;151.202;2023-09-18T13:23:32;20.30;99.90
25668;DHT22;18003;-33.830;151.202;2023-09-18T13:26:04;20.30;99.90
25668;DHT22;18003;-33.830;151.202;2023-09-18T13:28:35;20.20;99.90
25668;DHT22;18003;-33.830;151.202;2023-09-18T13:31:05;20.30;99.90
25668;DHT22;18003;-33.830;151.202;2023-09-18T13:33:39;20.20;99.90
25668;DHT22;18003;-33.830;151.202;2023-09-18T13:36:11;20.20;99.90
25668;DHT22;18003;-33.830;151.202;2023-09-18T13:38:41;20.20;99.90
25668;DHT22;18003;-33.830;151.202;2023-09-18T13:41:12;20.20;99.90
25668;DHT22;18003;-33.830;151.202;2023-09-18T13:43:42;20.20;99.90
25668;DHT22;18003;-33.830;151.202;2023-09-18T13:46:13;20.20;99.90
25668;DHT22;18003;-33.830;151.202;2023-09-18T13:48:43;20.20;99.90
25668;DHT22;18003;-33.830;151.202;2023-09-18T13:51:13;20.10;99.90
25668;DHT22;18003;-33.830;151.202;2023-09-18T13:53:43;20.10;99.90
25668;DHT22;18003;-33.830;151.202;2023-09-18T13:56:14;20.20;99.90
25668;DHT22;18003;-33.830;151.202;2023-09-18T13:58:44;20.10;99.90
25668;DHT22;18003;-33.830;151.202;2023-09-18T14:01:14;20.10;99.90
25668;DHT22;18003;-33.830;151.202;2023-09-18T14:03:44;20.10;99.90
25668;DHT22;18003;-33.830;151.202;2023-09-18T14:06:14;20.10;99.90
25668;DHT22;18003;-33.830;151.202;2023-09-18T14:08:44;20.10;99.90
25668;DHT22;18003;-33.830;151.202;2023-09-18T14:11:17;20.00;99.90
25668;DHT22;18003;-33.830;151.202;2023-09-18T14:13:49;20.00;99.90
25668;DHT22;18003;-33.830;151.202;2023-09-18T14:16:19;20.00;99.90
25668;DHT22;18003;-33.830;151.202;2023-09-18T14:18:49;20.00;99.90
25668;DHT22;18003;-33.830;151.202;2023-09-18T14:21:19;20.00;99.90
25668;DHT22;18003;-33.830;151.202;2023-09-18T14:23:49;20.00;99.90
25668;DHT22;18003;-33.830;151.202;2023-09-18T14:26:21;19.90;99.90
25668;DHT22;18003;-33.830;151.202;2023-09-18T14:28:51;19.90;99.90
25668;DHT22;18003;-33.830;151.202;2023-09-18T14:31:22;19.90;99.90
25668;DHT22;18003;-33.830;151.202;2023-09-18T14:33:52;19.80;99.90
25668;DHT22;18003;-33.830;151.202;2023-09-18T14:36:22;19.80;99.90
25668;DHT22;18003;-33.830;151.202;2023-09-18T14:38:52;19.80;99.90
25668;DHT22;18003;-33.830;151.202;2023-09-18T14:41:23;19.80;99.90
25668;DHT22;18003;-33.830;151.202;2023-09-18T14:43:53;19.80;99.90
25668;DHT22;18003;-33.830;151.202;2023-09-18T14:46:25;19.80;99.90
25668;DHT22;18003;-33.830;151.202;2023-09-18T14:48:55;19.70;99.90
25668;DHT22;18003;-33.830;151.202;2023-09-18T14:51:25;19.70;99.90
25668;DHT22;18003;-33.830;151.202;2023-09-18T14:53:57;19.70;99.90
25668;DHT22;18003;-33.830;151.202;2023-09-18T14:56:27;19.70;99.90
25668;DHT22;18003;-33.830;151.202;2023-09-18T14:58:57;19.70;99.90
25668;DHT22;18003;-33.830;151.202;2023-09-18T15:01:28;19.70;99.90
25668;DHT22;18003;-33.830;151.202;2023-09-18T15:03:59;19.70;99.90
25668;DHT22;18003;-33.830;151.202;2023-09-18T15:06:30;19.70;99.90
25668;DHT22;18003;-33.830;151.202;2023-09-18T15:09:00;19.70;99.90
25668;DHT22;18003;-33.830;151.202;2023-09-18T15:11:31;19.70;99.90
25668;DHT22;18003;-33.830;151.202;2023-09-18T15:14:03;19.70;99.90
25668;DHT22;18003;-33.830;151.202;2023-09-18T15:16:33;19.70;99.90